Time;durP1;ratioP1;P1;durP2;ratioP2;P2;SDS_P1;SDS_P2;PMS_P1;PMS_P2;Temp;Humidity;BMP_temperature;BMP_pressure;BME280_temperature;BME280_humidity;BME280_pressure;Samples;Min_cycle;Max_cycle;Signal;HPM_P1;HPM_P2
2023/01/26 00:00:08;;;;;;;9.20;8.20;;;1.90;99.90;;;;;;5107725;28;20218;-84
2023/01/26 00:02:37;;;;;;;9.93;8.03;;;1.90;99.90;;;;;;5108293;28;20250;-85
2023/01/26 00:05:06;;;;;;;10.50;9.38;;;1.80;99.90;;;;;;5107803;28;20277;-84
2023/01/26 00:07:35;;;;;;;12.43;9.03;;;1.90;99.90;;;;;;5107826;28;20218;-84
2023/01/26 00:10:03;;;;;;;8.13;7.32;;;1.80;99.90;;;;;;5107700;28;20253;-84
2023/01/26 00:12:33;;;;;;;8.45;7.47;;;1.80;99.90;;;;;;5107626;28;20214;-83
2023/01/26 00:15:01;;;;;;;10.27;9.13;;;1.80;99.90;;;;;;5107851;28;20204;-83
2023/01/26 00:17:30;;;;;;;10.60;8.88;;;1.80;99.90;;;;;;5106808;28;20228;-83
2023/01/26 00:19:58;;;;;;;9.90;8.05;;;1.80;99.90;;;;;;5107469;28;20223;-85
2023/01/26 00:22:27;;;;;;;8.93;8.03;;;1.70;99.90;;;;;;5107105;28;20219;-83
2023/01/26 00:24:56;;;;;;;10.77;8.20;;;1.70;99.90;;;;;;5107485;28;20212;-83
2023/01/26 00:27:24;;;;;;;9.32;8.32;;;1.70;99.90;;;;;;5107564;28;20212;-84
2023/01/26 00:29:54;;;;;;;10.18;8.60;;;1.70;99.90;;;;;;5107560;28;20207;-84
2023/01/26 00:32:22;;;;;;;11.88;9.00;;;1.70;99.90;;;;;;5107202;28;20269;-84
2023/01/26 00:34:50;;;;;;;11.00;8.10;;;1.70;99.90;;;;;;5107539;28;20208;-84
2023/01/26 00:37:19;;;;;;;11.60;9.47;;;1.70;99.90;;;;;;5106959;28;20238;-84
2023/01/26 00:39:47;;;;;;;14.32;9.07;;;1.70;99.90;;;;;;5107440;28;20226;-84
2023/01/26 00:42:15;;;;;;;9.53;8.57;;;1.70;99.90;;;;;;5107192;28;20218;-83
2023/01/26 00:44:44;;;;;;;10.47;9.33;;;1.70;99.90;;;;;;5106958;28;20211;-83
2023/01/26 00:47:14;;;;;;;10.53;8.83;;;1.70;99.90;;;;;;5103926;28;20216;-84
2023/01/26 00:49:43;;;;;;;11.73;9.43;;;1.70;99.90;;;;;;5093631;28;20208;-83
2023/01/26 00:52:12;;;;;;;10.25;9.00;;;1.60;99.90;;;;;;5093651;28;20211;-83
2023/01/26 00:54:40;;;;;;;13.75;9.10;;;1.70;99.90;;;;;;5093428;28;20235;-83
2023/01/26 00:57:08;;;;;;;14.03;10.57;;;1.60;99.90;;;;;;5092907;28;20235;-83
2023/01/26 00:59:37;;;;;;;9.07;8.13;;;1.70;99.90;;;;;;5093143;28;20220;-83
2023/01/26 01:02:05;;;;;;;9.80;8.80;;;1.70;99.90;;;;;;5093292;28;20220;-83
2023/01/26 01:04:35;;;;;;;8.75;7.85;;;1.70;99.90;;;;;;5093022;28;20220;-83
2023/01/26 01:07:03;;;;;;;8.95;7.95;;;1.70;99.90;;;;;;5093252;28;20196;-83
2023/01/26 01:09:32;;;;;;;9.57;8.37;;;1.60;99.90;;;;;;5093356;28;20215;-83
2023/01/26 01:12:00;;;;;;;8.13;7.40;;;1.60;99.90;;;;;;5093171;28;20219;-83
2023/01/26 01:14:28;;;;;;;9.43;7.97;;;1.60;99.90;;;;;;5093041;28;20239;-83
2023/01/26 01:16:57;;;;;;;10.00;7.55;;;1.60;99.90;;;;;;5092448;28;20319;-83
2023/01/26 01:19:26;;;;;;;15.90;7.13;;;1.60;99.90;;;;;;5093204;28;20216;-83
2023/01/26 01:21:56;;;;;;;8.47;7.67;;;1.50;99.90;;;;;;5093272;28;20279;-83
2023/01/26 01:24:24;;;;;;;9.05;8.00;;;1.60;99.90;;;;;;5092822;28;20232;-83
2023/01/26 01:26:52;;;;;;;9.25;8.35;;;1.60;99.90;;;;;;5092524;28;20212;-83
2023/01/26 01:29:21;;;;;;;9.65;8.45;;;1.60;99.90;;;;;;5092806;28;20215;-84
2023/01/26 01:31:49;;;;;;;9.93;8.27;;;1.60;99.90;;;;;;5094801;28;20323;-83
2023/01/26 01:34:17;;;;;;;9.73;7.97;;;1.60;99.90;;;;;;5095172;28;20216;-83
2023/01/26 01:36:46;;;;;;;10.77;9.20;;;1.60;99.90;;;;;;5094454;28;20231;-84
2023/01/26 01:39:15;;;;;;;9.35;8.38;;;1.60;99.90;;;;;;5094448;28;20210;-84
2023/01/26 01:41:47;;;;;;;8.43;7.40;;;1.60;99.90;;;;;;5095056;28;20226;-83
2023/01/26 01:44:17;;;;;;;10.35;8.95;;;1.60;99.90;;;;;;5094587;28;20234;-85
2023/01/26 01:46:49;;;;;;;9.33;8.27;;;1.60;99.90;;;;;;5094673;28;20212;-84
2023/01/26 01:49:20;;;;;;;11.53;8.30;;;1.60;99.90;;;;;;5094466;28;20205;-84
2023/01/26 01:51:53;;;;;;;10.07;8.10;;;1.60;99.90;;;;;;5094736;28;20211;-84
2023/01/26 01:54:29;;;;;;;9.80;8.30;;;1.70;99.90;;;;;;5094831;28;20224;-84
2023/01/26 01:57:00;;;;;;;8.33;7.40;;;1.60;99.90;;;;;;5093914;28;20226;-84
2023/01/26 01:59:30;;;;;;;10.00;8.07;;;1.70;99.90;;;;;;5093563;28;20204;-84
2023/01/26 02:01:59;;;;;;;8.98;8.07;;;1.70;99.90;;;;;;5094542;28;20215;-84
2023/01/26 02:04:27;;;;;;;8.10;7.35;;;1.70;99.90;;;;;;5094620;28;20230;-85
2023/01/26 02:06:59;;;;;;;11.63;8.30;;;1.70;99.90;;;;;;5094060;28;20283;-84
2023/01/26 02:12:23;;;;;;;8.98;8.07;;;1.70;99.90;;;;;;5094488;28;20251;-85
2023/01/26 02:14:53;;;;;;;9.93;8.93;;;1.70;99.90;;;;;;5094409;28;20208;-84
2023/01/26 02:17:21;;;;;;;9.67;8.13;;;1.80;99.90;;;;;;5093690;28;20226;-84
2023/01/26 02:19:58;;;;;;;13.23;8.80;;;1.70;99.90;;;;;;5094104;28;20212;-84
2023/01/26 02:22:39;;;;;;;8.85;7.68;;;1.70;99.90;;;;;;5094240;28;20204;-84
2023/01/26 02:25:15;;;;;;;10.68;9.52;;;1.70;99.90;;;;;;5094059;28;20212;-84
2023/01/26 02:27:45;;;;;;;11.95;9.52;;;1.70;99.90;;;;;;5093559;28;20214;-84
2023/01/26 02:30:14;;;;;;;9.97;8.97;;;1.80;99.90;;;;;;5093607;28;20208;-84
2023/01/26 02:32:42;;;;;;;9.98;9.02;;;1.80;99.90;;;;;;5093537;28;20232;-84
2023/01/26 02:35:10;;;;;;;12.93;9.67;;;1.80;99.90;;;;;;5094093;28;20292;-84
2023/01/26 02:37:39;;;;;;;9.90;8.63;;;1.80;99.90;;;;;;5093578;28;20315;-84
2023/01/26 02:40:14;;;;;;;12.30;9.67;;;1.80;99.90;;;;;;5094060;28;20208;-84
2023/01/26 02:42:43;;;;;;;9.32;8.43;;;1.80;99.90;;;;;;5093696;28;20247;-84
2023/01/26 02:45:15;;;;;;;8.90;8.00;;;1.80;99.90;;;;;;5093516;28;20265;-84
2023/01/26 02:47:44;;;;;;;9.95;8.95;;;1.70;99.90;;;;;;5092961;28;20215;-84
2023/01/26 02:50:12;;;;;;;16.10;10.97;;;1.80;99.90;;;;;;5093737;28;20239;-84
2023/01/26 02:52:41;;;;;;;10.13;9.13;;;1.70;99.90;;;;;;5093625;28;20286;-84
2023/01/26 02:55:24;;;;;;;12.17;10.17;;;1.80;99.90;;;;;;5093401;28;20316;-84
2023/01/26 02:57:56;;;;;;;13.13;9.83;;;1.70;99.90;;;;;;5093101;28;20275;-84
2023/01/26 03:00:26;;;;;;;11.27;9.87;;;1.70;99.90;;;;;;5093386;28;20247;-84
2023/01/26 03:02:56;;;;;;;14.70;10.80;;;1.80;99.90;;;;;;5093151;28;20256;-84
2023/01/26 03:05:25;;;;;;;10.95;9.68;;;1.70;99.90;;;;;;5093338;28;20211;-85
2023/01/26 03:07:54;;;;;;;11.57;8.27;;;1.70;99.90;;;;;;5093348;28;20279;-83
2023/01/26 03:10:24;;;;;;;19.90;9.98;;;1.70;99.90;;;;;;5092822;28;20200;-84
2023/01/26 03:12:52;;;;;;;10.07;9.07;;;1.70;99.90;;;;;;5092913;28;20307;-84
2023/01/26 03:29:16;;;;;;;11.20;10.10;;;1.50;99.90;;;;;;5092904;28;20203;-83
2023/01/26 03:31:46;;;;;;;14.43;10.68;;;1.50;99.90;;;;;;5092728;28;20216;-83
2023/01/26 03:34:15;;;;;;;10.70;9.60;;;1.50;99.90;;;;;;5092847;28;20236;-82
2023/01/26 03:36:43;;;;;;;13.40;10.80;;;1.50;99.90;;;;;;5092405;28;20215;-83
2023/01/26 03:41:06;;;;;;;12.18;9.50;;;1.50;99.90;;;;;;5092770;28;20258;-83
2023/01/26 03:56:20;;;;;;;12.93;11.23;;;1.60;99.90;;;;;;5092739;28;20211;-84
2023/01/26 03:58:51;;;;;;;12.07;9.67;;;1.60;99.90;;;;;;5092272;28;20321;-83
2023/01/26 04:01:26;;;;;;;11.25;10.00;;;1.50;99.90;;;;;;5092486;28;20214;-83
2023/01/26 04:09:31;;;;;;;12.03;9.70;;;1.50;99.90;;;;;;5092501;28;20211;-83
2023/01/26 04:12:00;;;;;;;11.67;10.57;;;1.60;99.90;;;;;;5092327;28;20214;-83
2023/01/26 04:22:51;;;;;;;10.87;9.77;;;1.60;99.90;;;;;;5093396;28;20234;-83
2023/01/26 04:25:21;;;;;;;10.47;9.33;;;1.50;99.90;;;;;;5096269;28;20204;-83
2023/01/26 04:27:49;;;;;;;11.90;9.50;;;1.50;99.90;;;;;;5096099;28;20235;-83
2023/01/26 04:30:18;;;;;;;15.27;11.10;;;1.50;99.90;;;;;;5096251;28;20239;-83
2023/01/26 04:32:47;;;;;;;12.97;10.20;;;1.50;99.90;;;;;;5095620;28;20224;-83
2023/01/26 04:35:17;;;;;;;12.77;10.33;;;1.50;99.90;;;;;;5096180;28;20211;-83
2023/01/26 04:37:45;;;;;;;14.60;10.80;;;1.40;99.90;;;;;;5095653;28;20223;-82
2023/01/26 04:40:14;;;;;;;11.87;10.03;;;1.50;99.90;;;;;;5095630;28;20228;-82
2023/01/26 04:42:42;;;;;;;11.07;9.93;;;1.50;99.90;;;;;;5095785;28;20224;-83
2023/01/26 04:45:11;;;;;;;12.67;10.67;;;1.50;99.90;;;;;;5095860;28;20230;-83
2023/01/26 04:47:39;;;;;;;12.33;11.03;;;1.50;99.90;;;;;;5095403;28;20239;-83
2023/01/26 04:50:09;;;;;;;12.07;10.07;;;1.50;99.90;;;;;;5095472;28;20296;-83
2023/01/26 04:52:39;;;;;;;11.93;10.47;;;1.50;99.90;;;;;;5095675;28;20220;-83
2023/01/26 04:55:08;;;;;;;15.00;10.67;;;1.50;99.90;;;;;;5095755;28;20212;-83
2023/01/26 04:57:36;;;;;;;13.20;11.80;;;1.50;99.90;;;;;;5095410;28;20295;-83
2023/01/26 05:00:06;;;;;;;15.30;11.67;;;1.50;99.90;;;;;;5095094;28;20254;-83
2023/01/26 05:02:34;;;;;;;14.67;11.37;;;1.50;99.90;;;;;;5095371;28;20205;-83
2023/01/26 05:05:02;;;;;;;12.35;11.05;;;1.60;99.90;;;;;;5095313;28;20208;-83
2023/01/26 05:07:30;;;;;;;12.93;11.30;;;1.60;99.90;;;;;;5095200;28;20212;-84
2023/01/26 05:10:00;;;;;;;14.05;10.80;;;1.60;99.90;;;;;;5095360;28;20215;-83
2023/01/26 05:12:34;;;;;;;12.93;10.77;;;1.60;99.90;;;;;;5095075;28;20210;-83
2023/01/26 05:15:02;;;;;;;13.00;10.80;;;1.60;99.90;;;;;;5095132;28;20207;-82
2023/01/26 05:17:31;;;;;;;19.90;12.10;;;1.60;99.90;;;;;;5094975;28;20223;-83
2023/01/26 05:19:59;;;;;;;14.57;11.18;;;1.60;99.90;;;;;;5095038;28;20275;-84
2023/01/26 05:22:27;;;;;;;18.08;11.70;;;1.60;99.90;;;;;;5094663;28;20206;-84
2023/01/26 05:24:55;;;;;;;15.10;12.30;;;1.60;99.90;;;;;;5095081;28;20208;-83
2023/01/26 05:27:25;;;;;;;13.52;12.13;;;1.50;99.90;;;;;;5095099;28;20208;-83
2023/01/26 05:29:59;;;;;;;16.53;11.30;;;1.60;99.90;;;;;;5095061;28;20287;-83
2023/01/26 05:32:28;;;;;;;17.07;12.37;;;1.60;99.90;;;;;;5094551;28;20288;-82
2023/01/26 05:34:56;;;;;;;15.43;10.93;;;1.60;99.90;;;;;;5094787;28;20235;-84
2023/01/26 05:37:25;;;;;;;11.38;10.18;;;1.60;99.90;;;;;;5094643;28;20208;-84
2023/01/26 05:39:54;;;;;;;13.50;11.43;;;1.60;99.90;;;;;;5094751;28;20224;-83
2023/01/26 05:42:23;;;;;;;15.70;12.13;;;1.60;99.90;;;;;;5094916;28;20200;-83
2023/01/26 05:44:52;;;;;;;13.60;11.43;;;1.60;99.90;;;;;;5094849;28;20200;-84
2023/01/26 05:47:21;;;;;;;13.77;12.33;;;1.50;99.90;;;;;;5094285;28;20204;-84
2023/01/26 05:49:49;;;;;;;17.47;13.47;;;1.60;99.90;;;;;;5094778;28;20212;-83
2023/01/26 05:52:18;;;;;;;16.80;12.13;;;1.60;99.90;;;;;;5094466;28;20200;-83
2023/01/26 05:54:47;;;;;;;13.13;11.33;;;1.60;99.90;;;;;;5094521;28;20268;-83
2023/01/26 05:57:16;;;;;;;13.40;10.73;;;1.60;99.90;;;;;;5094043;28;20215;-83
2023/01/26 05:59:44;;;;;;;12.55;11.05;;;1.70;99.90;;;;;;5094107;28;20284;-84
2023/01/26 06:02:14;;;;;;;15.13;12.70;;;1.60;99.90;;;;;;5094484;28;20211;-84
2023/01/26 06:04:42;;;;;;;16.03;13.13;;;1.70;99.90;;;;;;5093990;28;20209;-84
2023/01/26 06:07:12;;;;;;;14.70;12.57;;;1.70;99.90;;;;;;5093954;28;20209;-83
2023/01/26 06:09:40;;;;;;;22.03;14.40;;;1.70;99.90;;;;;;5094373;28;20228;-83
2023/01/26 06:12:15;;;;;;;17.00;13.43;;;1.70;99.90;;;;;;5094258;28;20204;-83
2023/01/26 06:14:43;;;;;;;17.03;12.90;;;1.70;99.90;;;;;;5094255;28;20206;-83
2023/01/26 06:17:17;;;;;;;19.30;14.10;;;1.70;99.90;;;;;;5093638;28;20212;-84
2023/01/26 06:19:46;;;;;;;18.27;14.47;;;1.70;99.90;;;;;;5093567;28;20224;-84
2023/01/26 06:22:14;;;;;;;24.10;14.17;;;1.70;99.90;;;;;;5093482;28;20242;-83
2023/01/26 06:24:43;;;;;;;22.53;14.60;;;1.70;99.90;;;;;;5093397;28;20212;-83
2023/01/26 06:27:13;;;;;;;21.23;14.30;;;1.70;99.90;;;;;;5092933;28;20207;-83
2023/01/26 06:29:59;;;;;;;15.83;12.93;;;1.70;99.90;;;;;;5093633;28;20288;-83
2023/01/26 06:32:42;;;;;;;16.45;12.88;;;1.70;99.90;;;;;;5066754;28;20304;-84
2023/01/26 06:35:11;;;;;;;17.37;14.40;;;1.70;99.90;;;;;;5093661;28;20201;-84
2023/01/26 06:37:39;;;;;;;15.03;13.33;;;1.70;99.90;;;;;;5093014;28;20215;-85
2023/01/26 06:40:09;;;;;;;16.87;13.70;;;1.70;99.90;;;;;;5093030;28;20380;-85
2023/01/26 06:42:37;;;;;;;18.13;13.43;;;1.70;99.90;;;;;;5093332;28;20308;-84
2023/01/26 06:45:07;;;;;;;13.33;11.23;;;1.70;99.90;;;;;;5093306;28;20200;-83
2023/01/26 06:47:35;;;;;;;19.27;13.67;;;1.70;99.90;;;;;;5092886;28;20215;-83
2023/01/26 06:50:15;;;;;;;16.83;12.93;;;1.70;99.90;;;;;;5092887;28;20246;-83
2023/01/26 06:52:47;;;;;;;15.82;12.20;;;1.70;99.90;;;;;;5093127;28;20231;-85
2023/01/26 06:55:21;;;;;;;21.35;13.40;;;1.70;99.90;;;;;;5093097;28;20332;-84
2023/01/26 06:58:05;;;;;;;14.70;13.17;;;1.70;99.90;;;;;;5093090;28;20208;-83
2023/01/26 07:00:33;;;;;;;17.20;13.47;;;1.70;99.90;;;;;;5092764;28;20215;-83
2023/01/26 07:03:05;;;;;;;17.33;14.13;;;1.80;99.90;;;;;;5092797;28;20278;-85
2023/01/26 07:05:46;;;;;;;18.03;15.00;;;1.80;99.90;;;;;;5093136;28;20286;-84
2023/01/26 07:08:14;;;;;;;20.02;15.40;;;1.80;99.90;;;;;;5092926;28;20201;-84
2023/01/26 07:10:43;;;;;;;22.97;15.03;;;1.80;99.90;;;;;;5093128;28;20193;-83
2023/01/26 07:13:12;;;;;;;22.30;15.10;;;1.80;99.90;;;;;;5092789;28;20281;-84
2023/01/26 07:16:01;;;;;;;17.87;14.90;;;1.80;99.90;;;;;;5092777;28;20203;-84
2023/01/26 07:18:32;;;;;;;15.40;13.47;;;1.80;99.90;;;;;;5092387;28;20214;-84
2023/01/26 07:21:04;;;;;;;17.93;13.83;;;1.70;99.90;;;;;;5092503;28;20220;-84
2023/01/26 07:23:42;;;;;;;14.70;12.67;;;1.70;99.90;;;;;;5092301;28;20242;-84
2023/01/26 07:26:51;;;;;;;;;;;;;;;;;;;;;
2023/01/26 07:29:23;;;;;;;14.50;12.93;;;1.70;99.90;;;;;;5092926;28;20203;-83
2023/01/26 07:31:51;;;;;;;20.07;13.30;;;1.70;99.90;;;;;;5092638;28;20227;-84
2023/01/26 07:34:21;;;;;;;14.10;12.67;;;1.70;99.90;;;;;;5092033;28;20220;-85
2023/01/26 07:36:53;;;;;;;15.43;13.70;;;1.70;99.90;;;;;;5092489;28;20302;-83
2023/01/26 07:39:45;;;;;;;18.17;14.47;;;1.70;99.90;;;;;;5092449;28;20220;-84
2023/01/26 07:42:26;;;;;;;16.30;13.85;;;1.70;99.90;;;;;;5091855;28;20200;-84
2023/01/26 07:44:59;;;;;;;26.15;15.07;;;1.70;99.90;;;;;;5092477;28;20196;-84
2023/01/26 07:47:40;;;;;;;19.13;15.30;;;1.80;99.90;;;;;;5092505;28;20200;-84
2023/01/26 07:53:28;;;;;;;18.57;13.97;;;1.70;99.90;;;;;;5092393;28;20250;-83
2023/01/26 07:59:14;;;;;;;21.10;15.27;;;1.70;99.90;;;;;;5083787;28;20204;-84
2023/01/26 08:01:53;;;;;;;18.00;14.87;;;1.80;99.90;;;;;;5096489;28;20216;-84
2023/01/26 08:04:28;;;;;;;25.30;17.43;;;1.80;99.90;;;;;;5096591;28;20228;-84
2023/01/26 08:06:56;;;;;;;19.58;13.00;;;1.80;99.90;;;;;;5096175;28;20205;-84
2023/01/26 08:09:38;;;;;;;23.60;15.80;;;1.80;99.90;;;;;;5096295;28;20200;-84
2023/01/26 08:12:26;;;;;;;23.40;16.83;;;1.80;99.90;;;;;;5096194;28;20204;-84
2023/01/26 08:15:00;;;;;;;20.63;14.93;;;1.80;99.90;;;;;;5096460;28;20334;-84
2023/01/26 08:17:32;;;;;;;18.57;15.27;;;1.80;99.90;;;;;;5096088;28;20204;-84
2023/01/26 08:20:53;;;;;;;;;;;;;;;;;;;;;
2023/01/26 08:24:06;;;;;;;22.13;16.27;;;1.90;99.90;;;;;;5048042;28;20250;-84
2023/01/26 08:26:40;;;;;;;33.20;14.75;;;1.90;99.90;;;;;;5067757;28;20204;-84
2023/01/26 08:29:32;;;;;;;21.20;16.13;;;1.90;99.90;;;;;;5095890;28;20201;-83
2023/01/26 08:32:42;;;;;;;21.15;15.20;;;1.90;99.90;;;;;;5096165;28;20264;-83
2023/01/26 08:35:20;;;;;;;19.57;14.97;;;1.80;99.90;;;;;;5095890;28;20212;-83
2023/01/26 08:37:56;;;;;;;21.80;16.20;;;1.90;99.90;;;;;;5095727;28;20200;-83
2023/01/26 08:40:44;;;;;;;22.20;15.67;;;1.90;99.90;;;;;;5095797;28;20220;-84
2023/01/26 08:43:22;;;;;;;25.42;15.50;;;1.80;99.90;;;;;;5108279;22;20231;-84
2023/01/26 08:52:56;;;;;;;20.92;16.05;;;1.80;99.90;;;;;;5094076;28;20249;-84
2023/01/26 08:55:27;;;;;;;18.85;14.60;;;1.90;99.90;;;;;;5115723;28;20203;-84
2023/01/26 08:58:17;;;;;;;20.30;15.27;;;1.90;99.90;;;;;;5115732;28;20232;-84
2023/01/26 09:00:53;;;;;;;27.95;16.35;;;1.90;99.90;;;;;;5115786;28;20223;-83
2023/01/26 09:03:39;;;;;;;19.60;15.23;;;1.80;99.90;;;;;;5116010;28;20241;-84
2023/01/26 09:06:19;;;;;;;23.05;16.13;;;1.80;99.90;;;;;;5115744;28;20214;-84
2023/01/26 09:08:49;;;;;;;20.15;15.15;;;1.90;99.90;;;;;;5114991;28;20207;-84
2023/01/26 09:11:18;;;;;;;18.77;14.33;;;1.80;99.90;;;;;;5115446;28;20199;-83
2023/01/26 09:13:55;;;;;;;19.47;14.53;;;1.80;99.90;;;;;;5115239;28;20262;-84
2023/01/26 09:17:19;;;;;;;20.10;15.07;;;1.80;99.90;;;;;;5032462;28;20195;-85
2023/01/26 09:19:47;;;;;;;22.03;16.20;;;1.80;99.90;;;;;;5032933;28;20225;-84
2023/01/26 09:22:16;;;;;;;18.63;15.00;;;1.90;99.90;;;;;;5032470;28;20227;-84
2023/01/26 09:24:44;;;;;;;22.80;15.10;;;1.80;99.90;;;;;;5032180;28;20302;-84
2023/01/26 09:27:12;;;;;;;21.48;15.57;;;1.90;99.90;;;;;;5032132;28;20210;-83
2023/01/26 09:29:44;;;;;;;21.07;14.37;;;1.90;99.90;;;;;;5032341;28;20253;-83
2023/01/26 09:32:12;;;;;;;20.75;14.00;;;1.90;99.90;;;;;;5032499;28;20210;-83
2023/01/26 09:34:40;;;;;;;21.57;15.33;;;2.00;99.90;;;;;;5032425;28;20219;-83
2023/01/26 09:37:12;;;;;;;19.00;14.82;;;2.00;99.90;;;;;;5032140;28;20326;-83
2023/01/26 09:39:40;;;;;;;18.23;13.80;;;2.00;99.90;;;;;;5031849;28;20206;-83
2023/01/26 09:42:36;;;;;;;20.05;15.18;;;2.00;99.90;;;;;;5031641;28;20234;-84
2023/01/26 09:45:24;;;;;;;22.98;15.98;;;2.00;99.90;;;;;;5032394;28;20213;-84
2023/01/26 09:48:15;;;;;;;21.13;15.30;;;2.00;99.90;;;;;;5032062;28;20210;-83
2023/01/26 09:50:50;;;;;;;18.40;13.93;;;2.00;99.90;;;;;;5032360;28;20206;-84
2023/01/26 09:53:24;;;;;;;17.65;14.20;;;2.00;99.90;;;;;;5047628;28;20227;-83
2023/01/26 09:55:54;;;;;;;28.70;16.67;;;2.00;99.90;;;;;;5114617;28;20214;-83
2023/01/26 09:58:31;;;;;;;19.10;14.30;;;2.00;99.90;;;;;;5114430;28;20210;-84
2023/01/26 10:01:03;;;;;;;21.73;15.70;;;2.00;99.90;;;;;;5114329;28;20250;-84
2023/01/26 10:03:39;;;;;;;21.58;14.82;;;2.10;99.90;;;;;;5114383;28;20237;-83
2023/01/26 10:06:17;;;;;;;23.38;15.60;;;2.10;99.90;;;;;;5114083;28;20213;-83
2023/01/26 10:08:46;;;;;;;44.83;15.70;;;2.00;99.90;;;;;;5114397;28;20222;-84
2023/01/26 10:11:20;;;;;;;20.42;13.60;;;2.00;99.90;;;;;;5114326;28;20200;-83
2023/01/26 10:13:51;;;;;;;23.07;15.53;;;2.00;99.90;;;;;;5114301;28;20219;-84
2023/01/26 10:16:24;;;;;;;25.55;16.23;;;2.10;99.90;;;;;;5114332;28;20212;-84
2023/01/26 10:18:58;;;;;;;25.43;16.30;;;2.10;99.90;;;;;;5113674;28;20217;-83
2023/01/26 10:21:33;;;;;;;24.63;16.10;;;2.10;99.90;;;;;;5113004;28;20223;-83
2023/01/26 10:24:24;;;;;;;21.65;16.00;;;2.10;99.90;;;;;;5113931;28;20223;-84
2023/01/26 10:26:56;;;;;;;22.63;15.68;;;2.20;99.90;;;;;;5113901;28;20207;-84
2023/01/26 10:29:35;;;;;;;16.77;13.73;;;2.20;99.90;;;;;;5114308;28;20210;-84
2023/01/26 10:32:05;;;;;;;19.13;13.57;;;2.30;99.90;;;;;;5113748;28;20201;-83
2023/01/26 10:34:34;;;;;;;26.38;14.82;;;2.30;99.90;;;;;;5113746;28;20228;-83
2023/01/26 10:37:34;;;;;;;21.10;14.87;;;2.30;99.90;;;;;;5113546;28;20208;-83
2023/01/26 10:40:10;;;;;;;20.85;14.82;;;2.30;99.90;;;;;;5113887;28;20204;-84
2023/01/26 10:42:59;;;;;;;21.42;16.08;;;2.30;99.90;;;;;;5113037;28;20228;-84
2023/01/26 10:45:30;;;;;;;18.88;15.00;;;2.30;99.90;;;;;;5113841;28;20241;-84
2023/01/26 10:48:17;;;;;;;22.23;15.90;;;2.40;99.90;;;;;;5113093;28;20207;-85
2023/01/26 10:50:47;;;;;;;21.98;15.00;;;2.40;99.90;;;;;;5113658;28;20199;-85
2023/01/26 10:53:17;;;;;;;18.08;14.60;;;2.40;99.90;;;;;;5113335;28;20247;-84
2023/01/26 10:56:03;;;;;;;22.67;16.17;;;2.40;99.90;;;;;;5113446;28;20200;-83
2023/01/26 10:58:48;;;;;;;35.33;16.48;;;2.50;99.90;;;;;;5113076;28;20208;-83
2023/01/26 11:01:54;;;;;;;21.25;15.65;;;2.50;99.90;;;;;;5112975;28;20231;-83
2023/01/26 11:04:40;;;;;;;18.95;14.98;;;2.50;99.90;;;;;;5097086;28;20223;-83
2023/01/26 11:08:14;;;;;;;20.83;14.57;;;2.50;99.90;;;;;;5112991;28;20207;-84
2023/01/26 11:11:09;;;;;;;22.42;14.27;;;2.50;99.90;;;;;;5021529;28;20202;-84
2023/01/26 11:13:46;;;;;;;23.10;15.50;;;2.50;99.90;;;;;;5050603;28;20225;-83
2023/01/26 11:16:57;;;;;;;29.90;16.13;;;2.50;99.90;;;;;;5113182;28;20231;-84
2023/01/26 11:19:48;;;;;;;18.30;14.18;;;2.50;99.90;;;;;;5108977;28;20207;-84
2023/01/26 11:22:19;;;;;;;21.67;14.52;;;2.50;99.90;;;;;;5112853;28;20270;-84
2023/01/26 11:25:00;;;;;;;24.45;14.63;;;2.50;99.90;;;;;;5112834;28;20253;-84
2023/01/26 11:27:50;;;;;;;17.60;14.40;;;2.50;99.90;;;;;;5112282;28;20211;-84
2023/01/26 11:30:46;;;;;;;21.90;14.93;;;2.50;99.90;;;;;;5111399;28;20319;-84
2023/01/26 11:33:27;;;;;;;16.95;12.57;;;2.60;99.90;;;;;;5109250;28;20283;-84
2023/01/26 11:36:06;;;;;;;16.23;13.57;;;2.50;99.90;;;;;;5112982;28;20216;-84
2023/01/26 11:38:55;;;;;;;14.73;11.38;;;2.50;99.90;;;;;;5112929;28;20207;-84
2023/01/26 11:41:41;;;;;;;16.10;13.07;;;2.50;99.90;;;;;;5112802;28;20211;-84
2023/01/26 11:44:35;;;;;;;18.30;13.18;;;2.50;99.90;;;;;;5112704;28;20227;-83
2023/01/26 11:47:24;;;;;;;20.92;14.02;;;2.50;99.90;;;;;;5112678;28;20207;-84
2023/01/26 11:50:28;;;;;;;18.60;14.57;;;2.60;99.90;;;;;;5112529;28;20252;-83
2023/01/26 11:53:21;;;;;;;13.50;11.95;;;2.60;99.90;;;;;;5112728;28;20223;-84
2023/01/26 11:56:21;;;;;;;13.90;12.30;;;2.60;99.90;;;;;;5092204;28;20203;-84
2023/01/26 11:58:57;;;;;;;25.33;13.43;;;2.60;99.90;;;;;;5112445;28;20242;-84
2023/01/26 12:01:38;;;;;;;17.95;13.40;;;2.60;99.90;;;;;;5112759;28;20303;-85
2023/01/26 12:04:12;;;;;;;15.85;12.95;;;2.60;99.90;;;;;;5112017;28;20191;-84
2023/01/26 12:06:44;;;;;;;19.48;14.65;;;2.60;99.90;;;;;;5112467;28;20214;-84
2023/01/26 12:09:20;;;;;;;21.67;14.15;;;2.60;99.90;;;;;;5112500;28;20210;-83
2023/01/26 12:11:58;;;;;;;20.80;13.40;;;2.60;99.90;;;;;;5112670;28;20248;-84
2023/01/26 12:14:37;;;;;;;26.00;13.73;;;2.60;99.90;;;;;;5112597;28;20219;-85
2023/01/26 12:17:29;;;;;;;20.50;14.55;;;2.70;99.90;;;;;;5112358;28;20204;-83
2023/01/26 12:20:05;;;;;;;19.35;15.13;;;2.70;99.90;;;;;;5112571;28;20204;-84
2023/01/26 12:22:37;;;;;;;24.40;15.50;;;2.80;99.90;;;;;;5112582;28;20219;-84
2023/01/26 12:25:21;;;;;;;23.92;15.13;;;2.80;99.90;;;;;;5112777;28;20222;-84
2023/01/26 12:27:56;;;;;;;21.20;14.52;;;2.80;99.90;;;;;;5111977;28;20208;-84
2023/01/26 12:30:37;;;;;;;21.67;14.68;;;2.80;99.90;;;;;;5112340;28;20207;-84
2023/01/26 12:33:11;;;;;;;14.85;13.07;;;2.90;99.90;;;;;;5111861;28;20219;-84
2023/01/26 12:36:16;;;;;;;18.80;14.68;;;2.80;99.90;;;;;;5112461;28;20211;-84
2023/01/26 12:39:06;;;;;;;20.13;14.05;;;2.90;99.90;;;;;;5112503;28;20290;-85
2023/01/26 12:41:59;;;;;;;22.27;15.38;;;2.90;99.90;;;;;;5112486;28;20210;-84
2023/01/26 12:44:36;;;;;;;22.38;14.55;;;2.80;99.90;;;;;;5113277;28;20228;-83
2023/01/26 12:47:13;;;;;;;36.30;14.82;;;2.90;99.90;;;;;;5115805;28;20207;-83
2023/01/26 12:49:50;;;;;;;21.50;13.95;;;2.90;99.90;;;;;;5116049;28;20207;-83
2023/01/26 12:52:23;;;;;;;19.58;14.00;;;2.80;99.90;;;;;;5115840;28;20210;-83
2023/01/26 12:55:43;;;;;;;25.23;16.05;;;2.80;99.90;;;;;;5115622;28;20204;-83
2023/01/26 12:58:16;;;;;;;23.05;15.52;;;2.70;99.90;;;;;;5115463;28;20203;-83
2023/01/26 13:01:18;;;;;;;23.50;15.88;;;2.70;99.90;;;;;;5115796;28;20211;-83
2023/01/26 13:03:55;;;;;;;26.60;14.65;;;2.70;99.90;;;;;;5109035;28;20314;-84
2023/01/26 13:06:26;;;;;;;21.58;15.43;;;2.70;99.90;;;;;;5115745;28;20496;-83
2023/01/26 13:09:04;;;;;;;17.73;13.27;;;2.70;99.90;;;;;;5115085;28;20200;-84
2023/01/26 13:11:45;;;;;;;21.80;14.25;;;2.60;99.90;;;;;;5115451;28;20200;-84
2023/01/26 13:14:55;;;;;;;19.23;14.93;;;2.60;99.90;;;;;;5115441;28;20239;-84
2023/01/26 13:17:48;;;;;;;21.83;14.82;;;2.70;99.90;;;;;;5115618;28;20283;-84
2023/01/26 13:20:45;;;;;;;22.60;16.85;;;2.60;99.90;;;;;;5115054;28;20212;-84
2023/01/26 13:23:42;;;;;;;28.88;16.48;;;2.60;99.90;;;;;;5111122;28;20227;-83
2023/01/26 13:26:23;;;;;;;27.33;16.60;;;2.50;99.90;;;;;;5110321;28;20233;-84
2023/01/26 13:28:53;;;;;;;22.73;17.47;;;2.60;99.90;;;;;;5115135;28;20294;-84
2023/01/26 13:31:33;;;;;;;23.13;16.83;;;2.60;99.90;;;;;;5115165;28;20215;-84
2023/01/26 13:34:06;;;;;;;25.48;16.98;;;2.60;99.90;;;;;;5114914;28;20215;-83
2023/01/26 13:36:38;;;;;;;23.17;16.60;;;2.60;99.90;;;;;;5114786;28;20208;-84
2023/01/26 13:39:16;;;;;;;19.83;16.63;;;2.60;99.90;;;;;;5115292;28;20222;-83
2023/01/26 13:41:46;;;;;;;23.75;16.90;;;2.60;99.90;;;;;;5114964;28;20211;-83
2023/01/26 13:44:20;;;;;;;35.25;18.33;;;2.60;99.90;;;;;;5114933;28;20272;-84
2023/01/26 13:46:54;;;;;;;24.73;18.63;;;2.60;99.90;;;;;;5114317;28;20215;-83
2023/01/26 13:49:41;;;;;;;21.58;16.27;;;2.60;99.90;;;;;;5114548;28;20237;-83
2023/01/26 13:52:21;;;;;;;24.85;17.10;;;2.60;99.90;;;;;;5114489;28;20196;-83
2023/01/26 13:54:56;;;;;;;28.02;17.98;;;2.60;99.90;;;;;;5114625;28;20210;-83
2023/01/26 13:57:26;;;;;;;25.08;16.58;;;2.60;99.90;;;;;;5114289;28;20232;-83
2023/01/26 13:59:59;;;;;;;26.33;17.70;;;2.60;99.90;;;;;;5114299;28;20210;-84
2023/01/26 14:02:30;;;;;;;32.58;18.58;;;2.60;99.90;;;;;;5114328;28;20235;-83
2023/01/26 14:04:59;;;;;;;24.25;18.27;;;2.60;99.90;;;;;;5114336;28;20323;-83
2023/01/26 14:07:31;;;;;;;20.35;16.08;;;2.60;99.90;;;;;;5114091;28;20211;-83
2023/01/26 14:10:02;;;;;;;25.05;17.95;;;2.50;99.90;;;;;;5114238;28;20204;-83
2023/01/26 14:12:42;;;;;;;33.08;17.45;;;2.50;99.90;;;;;;5114447;28;20235;-83
2023/01/26 14:15:25;;;;;;;36.67;17.45;;;2.60;99.90;;;;;;5114260;28;20210;-83
2023/01/26 14:17:59;;;;;;;30.70;17.25;;;2.60;99.90;;;;;;5114017;28;20298;-82
2023/01/26 14:20:30;;;;;;;29.52;17.20;;;2.50;99.90;;;;;;5113886;28;20297;-83
2023/01/26 14:23:19;;;;;;;25.33;15.73;;;2.50;99.90;;;;;;5114069;28;20234;-83